createdAt,value
2017-03-16T00:00:23.404Z,270
2017-03-16T00:01:18.420Z,270
2017-03-16T00:02:19.437Z,270
2017-03-16T00:03:19.451Z,270
2017-03-16T00:04:19.466Z,270
2017-03-16T00:05:14.533Z,270
2017-03-16T00:06:08.526Z,270
2017-03-16T00:07:09.561Z,270
2017-03-16T00:08:09.606Z,270
2017-03-16T00:08:58.636Z,0
2017-03-16T00:09:53.645Z,0
2017-03-16T00:10:48.678Z,0
2017-03-16T00:11:42.683Z,0
2017-03-16T00:12:37.809Z,0
2017-03-16T00:13:43.765Z,0
2017-03-16T00:14:43.833Z,0
2017-03-16T00:15:37.835Z,0
2017-03-16T00:16:38.827Z,0
2017-03-16T00:17:38.878Z,0
2017-03-16T00:18:33.912Z,0
2017-03-16T00:19:34.045Z,0
2017-03-16T00:20:27.933Z,0
2017-03-16T00:21:27.954Z,0
2017-03-16T00:22:22.947Z,0
2017-03-16T00:23:18.024Z,0
2017-03-16T00:24:18.059Z,0
2017-03-16T00:25:13.114Z,0
2017-03-16T00:26:08.066Z,0
2017-03-16T00:27:09.087Z,0
2017-03-16T00:28:09.149Z,0
2017-03-16T00:29:09.132Z,0
2017-03-16T00:30:04.240Z,0
2017-03-16T00:30:58.252Z,0
2017-03-16T00:31:59.244Z,0
2017-03-16T00:32:59.339Z,0
2017-03-16T00:33:59.331Z,0
2017-03-16T00:34:54.300Z,0
2017-03-16T00:35:48.416Z,0
2017-03-16T00:36:48.427Z,0
2017-03-16T00:37:43.427Z,0
2017-03-16T00:38:38.452Z,0
2017-03-16T00:39:39.465Z,0
2017-03-16T00:40:39.503Z,0
2017-03-16T00:41:39.538Z,0
2017-03-16T00:42:34.574Z,0
2017-03-16T00:43:34.554Z,0
2017-03-16T00:44:34.622Z,0
2017-03-16T00:45:28.659Z,0
2017-03-16T00:46:28.655Z,0
2017-03-16T00:47:23.724Z,0
2017-03-16T00:48:29.756Z,0
2017-03-16T00:49:24.764Z,0
2017-03-16T00:50:18.790Z,0
2017-03-16T00:51:18.812Z,0
2017-03-16T00:52:18.835Z,0
2017-03-16T00:53:13.850Z,0
2017-03-16T00:54:07.930Z,0
2017-03-16T00:55:07.931Z,0
2017-03-16T00:56:02.931Z,0
2017-03-16T00:57:02.942Z,0
2017-03-16T00:58:02.993Z,0
2017-03-16T00:59:09.010Z,0
2017-03-16T01:00:04.040Z,0
2017-03-16T01:01:04.062Z,0
2017-03-16T01:01:59.110Z,0
2017-03-16T01:02:59.126Z,0
2017-03-16T01:03:59.143Z,0
2017-03-16T01:04:59.169Z,0
2017-03-16T01:05:53.151Z,0
2017-03-16T01:06:54.230Z,0
2017-03-16T01:07:55.246Z,0
2017-03-16T01:08:50.251Z,0
2017-03-16T01:09:44.333Z,0
2017-03-16T01:10:44.347Z,0
2017-03-16T01:11:39.375Z,0
2017-03-16T01:12:45.356Z,0
2017-03-16T01:13:40.434Z,0
2017-03-16T01:14:34.433Z,0
2017-03-16T01:15:35.434Z,0
2017-03-16T01:16:35.491Z,0
2017-03-16T01:17:36.500Z,0
2017-03-16T01:18:30.494Z,0
2017-03-16T01:19:31.532Z,0
2017-03-16T01:20:31.540Z,0
2017-03-16T01:21:26.687Z,0
2017-03-16T01:22:26.638Z,0
2017-03-16T01:23:20.713Z,0
2017-03-16T01:24:20.717Z,0
2017-03-16T01:25:15.669Z,0
2017-03-16T01:26:10.726Z,0
2017-03-16T01:27:10.737Z,0
2017-03-16T01:28:05.844Z,0
2017-03-16T01:29:00.793Z,0
2017-03-16T01:30:01.853Z,0
2017-03-16T01:31:02.851Z,0
2017-03-16T01:31:57.923Z,0
2017-03-16T01:32:51.932Z,0
2017-03-16T01:33:51.937Z,0
2017-03-16T01:34:51.969Z,0
2017-03-16T01:35:47.000Z,0
2017-03-16T01:36:41.038Z,0
2017-03-16T01:37:41.063Z,0
2017-03-16T01:38:36.136Z,0
2017-03-16T01:39:31.087Z,0
2017-03-16T01:40:32.154Z,0
2017-03-16T01:41:32.162Z,0
2017-03-16T01:42:32.195Z,0
2017-03-16T01:43:27.218Z,0
2017-03-16T01:44:21.248Z,0
2017-03-16T01:45:22.319Z,0
2017-03-16T01:46:22.301Z,0
2017-03-16T01:47:22.320Z,0
2017-03-16T01:48:17.357Z,0
2017-03-16T01:49:11.406Z,0
2017-03-16T01:50:11.410Z,0
2017-03-16T01:51:06.454Z,0
2017-03-16T01:52:01.419Z,0
2017-03-16T01:53:02.490Z,0
2017-03-16T01:54:02.538Z,0
2017-03-16T01:55:02.535Z,0
2017-03-16T01:55:57.555Z,0
2017-03-16T01:56:51.664Z,0
2017-03-16T01:57:52.631Z,0
2017-03-16T01:58:52.644Z,0
2017-03-16T01:59:52.656Z,0
2017-03-16T02:00:47.699Z,0
2017-03-16T02:01:41.736Z,0
2017-03-16T02:02:41.760Z,0
2017-03-16T02:03:36.772Z,0
2017-03-16T02:04:31.815Z,0
2017-03-16T02:05:32.783Z,0
2017-03-16T02:06:32.821Z,0
2017-03-16T02:07:32.819Z,0
2017-03-16T02:08:27.941Z,0
2017-03-16T02:09:21.932Z,0
2017-03-16T02:10:22.010Z,0
2017-03-16T02:11:16.984Z,0
2017-03-16T02:12:16.997Z,0
2017-03-16T02:13:11.046Z,0
2017-03-16T02:14:11.089Z,0
2017-03-16T02:15:06.057Z,0
2017-03-16T02:16:01.125Z,0
2017-03-16T02:17:01.155Z,0
2017-03-16T02:17:56.180Z,0
2017-03-16T02:18:51.266Z,0
2017-03-16T02:19:52.348Z,0
2017-03-16T02:20:52.236Z,0
2017-03-16T02:21:52.247Z,0
2017-03-16T02:22:47.312Z,0
2017-03-16T02:23:41.340Z,0
2017-03-16T02:24:41.377Z,0
2017-03-16T02:25:36.371Z,0
2017-03-16T02:26:36.356Z,0
2017-03-16T02:27:30.442Z,0
2017-03-16T02:28:30.456Z,0
2017-03-16T02:29:25.481Z,0
2017-03-16T02:30:25.542Z,0
2017-03-16T02:31:25.553Z,0
2017-03-16T02:32:25.543Z,0
2017-03-16T02:33:19.569Z,0
2017-03-16T02:34:19.630Z,0
2017-03-16T02:35:14.665Z,0
2017-03-16T02:36:09.657Z,0
2017-03-16T02:37:09.741Z,0
2017-03-16T02:38:04.748Z,0
2017-03-16T02:38:59.749Z,0
2017-03-16T02:40:00.760Z,0
2017-03-16T02:41:01.832Z,0
2017-03-16T02:41:56.849Z,0
2017-03-16T02:42:50.853Z,0
2017-03-16T02:43:50.862Z,0
2017-03-16T02:44:50.928Z,0
2017-03-16T02:45:45.927Z,0
2017-03-16T02:46:39.950Z,0
2017-03-16T02:47:39.984Z,0
2017-03-16T02:48:35.007Z,0
2017-03-16T02:49:30.049Z,0
2017-03-16T02:50:31.039Z,0
2017-03-16T02:51:31.115Z,0
2017-03-16T02:52:31.134Z,0
2017-03-16T02:53:26.100Z,0
2017-03-16T02:54:20.206Z,0
2017-03-16T02:55:20.224Z,0
2017-03-16T02:56:15.218Z,0
2017-03-16T02:57:15.250Z,0
2017-03-16T02:58:09.394Z,0
2017-03-16T02:59:09.269Z,0
2017-03-16T03:00:04.330Z,0
2017-03-16T03:00:59.340Z,0
2017-03-16T03:02:00.403Z,0
2017-03-16T03:03:01.429Z,0
2017-03-16T03:04:02.437Z,0
2017-03-16T03:05:02.434Z,0
2017-03-16T03:06:03.449Z,0
2017-03-16T03:06:57.536Z,0
2017-03-16T03:07:57.544Z,0
2017-03-16T03:08:52.544Z,0
2017-03-16T03:09:47.579Z,0
2017-03-16T03:10:47.616Z,0
2017-03-16T03:11:42.669Z,0
2017-03-16T03:12:37.646Z,0
2017-03-16T03:13:38.787Z,0
2017-03-16T03:14:38.776Z,0
2017-03-16T03:15:33.731Z,0
2017-03-16T03:16:39.712Z,0
2017-03-16T03:17:34.811Z,0
2017-03-16T03:18:28.835Z,0
2017-03-16T03:19:28.831Z,0
2017-03-16T03:20:28.852Z,0
2017-03-16T03:21:23.896Z,0
2017-03-16T03:22:17.925Z,0
2017-03-16T03:23:17.948Z,0
2017-03-16T03:24:12.954Z,0
2017-03-16T03:25:13.018Z,0
2017-03-16T03:26:07.041Z,0
2017-03-16T03:27:07.055Z,0
2017-03-16T03:28:02.058Z,0
2017-03-16T03:29:02.132Z,0
2017-03-16T03:30:02.147Z,0
2017-03-16T03:31:02.151Z,0
2017-03-16T03:32:02.166Z,0
2017-03-16T03:33:02.213Z,0
2017-03-16T03:33:56.321Z,0
2017-03-16T03:34:56.254Z,0
2017-03-16T03:35:51.256Z,0
2017-03-16T03:36:51.307Z,0
2017-03-16T03:37:45.327Z,0
2017-03-16T03:38:45.349Z,0
2017-03-16T03:39:40.394Z,0
2017-03-16T03:40:35.435Z,0
2017-03-16T03:41:35.428Z,0
2017-03-16T03:42:30.416Z,0
2017-03-16T03:43:25.520Z,0
2017-03-16T03:44:26.528Z,0
2017-03-16T03:45:26.528Z,0
2017-03-16T03:46:26.742Z,0
2017-03-16T03:47:21.580Z,0
2017-03-16T03:48:15.573Z,0
2017-03-16T03:49:15.596Z,0
2017-03-16T03:50:10.647Z,0
2017-03-16T03:51:10.720Z,0
2017-03-16T03:52:04.776Z,0
2017-03-16T03:53:05.732Z,0
2017-03-16T03:54:06.743Z,0
2017-03-16T03:55:01.799Z,0
2017-03-16T03:55:55.821Z,0
2017-03-16T03:56:55.852Z,0
2017-03-16T03:57:55.910Z,0
2017-03-16T03:58:55.901Z,0
2017-03-16T03:59:55.920Z,0
2017-03-16T04:00:50.937Z,0
2017-03-16T04:01:44.927Z,0
2017-03-16T04:02:44.957Z,0
2017-03-16T04:03:40.342Z,0
2017-03-16T04:04:35.049Z,0
2017-03-16T04:05:35.050Z,0
2017-03-16T04:06:35.127Z,0
2017-03-16T04:07:35.127Z,0
2017-03-16T04:08:30.291Z,0
2017-03-16T04:09:30.169Z,0
2017-03-16T04:10:24.231Z,0
2017-03-16T04:11:24.252Z,0
2017-03-16T04:12:19.265Z,0
2017-03-16T04:13:14.323Z,0
2017-03-16T04:14:14.357Z,0
2017-03-16T04:15:09.416Z,0
2017-03-16T04:16:04.353Z,0
2017-03-16T04:17:05.415Z,0
2017-03-16T04:18:05.440Z,0
2017-03-16T04:19:05.435Z,0
2017-03-16T04:20:00.459Z,0
2017-03-16T04:20:54.789Z,0
2017-03-16T04:21:54.519Z,0
2017-03-16T04:22:49.544Z,0
2017-03-16T04:23:49.551Z,0
2017-03-16T04:24:43.630Z,0
2017-03-16T04:25:43.631Z,0
2017-03-16T04:26:38.657Z,0
2017-03-16T04:27:33.784Z,0
2017-03-16T04:28:33.815Z,0
2017-03-16T04:29:28.735Z,0
2017-03-16T04:30:23.759Z,0
2017-03-16T04:31:24.797Z,0
2017-03-16T04:32:24.817Z,0
2017-03-16T04:33:24.818Z,0
2017-03-16T04:34:24.845Z,0
2017-03-16T04:35:25.861Z,0
2017-03-16T04:36:26.921Z,0
2017-03-16T04:37:20.882Z,0
2017-03-16T04:38:20.929Z,0
2017-03-16T04:39:15.934Z,0
2017-03-16T04:40:11.015Z,0
2017-03-16T04:41:11.033Z,0
2017-03-16T04:42:06.045Z,0
2017-03-16T04:43:01.098Z,0
2017-03-16T04:44:01.131Z,0
2017-03-16T04:44:56.143Z,0
2017-03-16T04:45:51.169Z,0
2017-03-16T04:46:52.197Z,0
2017-03-16T04:47:52.235Z,0
2017-03-16T04:48:52.226Z,0
2017-03-16T04:49:47.243Z,0
2017-03-16T04:50:41.237Z,0
2017-03-16T04:51:41.276Z,0
2017-03-16T04:52:36.320Z,0
2017-03-16T04:53:36.497Z,0
2017-03-16T04:54:30.410Z,0
2017-03-16T04:55:30.444Z,0
2017-03-16T04:56:25.456Z,0
2017-03-16T04:57:20.419Z,0
2017-03-16T04:58:20.458Z,0
2017-03-16T04:59:15.534Z,0
2017-03-16T05:00:10.531Z,0
2017-03-16T05:01:11.848Z,0
2017-03-16T05:02:12.619Z,0
2017-03-16T05:03:07.726Z,0
2017-03-16T05:04:01.702Z,0
2017-03-16T05:05:01.669Z,0
2017-03-16T05:06:01.711Z,0
2017-03-16T05:06:56.742Z,0
2017-03-16T05:07:50.866Z,0
2017-03-16T05:08:50.746Z,0
2017-03-16T05:09:45.833Z,0
2017-03-16T05:10:40.795Z,0
2017-03-16T05:11:41.850Z,0
2017-03-16T05:12:41.912Z,0
2017-03-16T05:13:41.921Z,0
2017-03-16T05:14:36.947Z,0
2017-03-16T05:15:30.951Z,0
2017-03-16T05:16:31.026Z,0
2017-03-16T05:17:25.980Z,0
2017-03-16T05:18:26.056Z,0
2017-03-16T05:19:26.191Z,0
2017-03-16T05:20:32.107Z,0
2017-03-16T05:21:32.195Z,0
2017-03-16T05:22:33.151Z,0
2017-03-16T05:23:33.159Z,0
2017-03-16T05:24:33.204Z,0
2017-03-16T05:25:34.233Z,0
2017-03-16T05:26:28.235Z,0
2017-03-16T05:27:28.258Z,0
2017-03-16T05:28:23.255Z,0
2017-03-16T05:29:18.327Z,0
2017-03-16T05:30:18.332Z,0
2017-03-16T05:31:13.338Z,0
2017-03-16T05:32:13.452Z,0
2017-03-16T05:33:14.436Z,0
2017-03-16T05:34:15.441Z,0
2017-03-16T05:35:09.467Z,0
2017-03-16T05:36:10.497Z,0
2017-03-16T05:37:11.539Z,0
2017-03-16T05:38:11.552Z,0
2017-03-16T05:39:06.565Z,0
2017-03-16T05:40:06.565Z,0
2017-03-16T05:41:07.634Z,0
2017-03-16T05:42:01.624Z,0
2017-03-16T05:43:01.666Z,0
2017-03-16T05:43:56.818Z,0
2017-03-16T05:44:51.749Z,0
2017-03-16T05:45:45.747Z,0
2017-03-16T05:46:46.942Z,0
2017-03-16T05:47:47.822Z,0
2017-03-16T05:48:42.840Z,338
2017-03-16T05:49:42.855Z,225
2017-03-16T05:50:42.932Z,225
2017-03-16T05:51:42.923Z,225
2017-03-16T05:52:42.943Z,225
2017-03-16T05:53:42.947Z,225
2017-03-16T05:54:43.003Z,225
2017-03-16T05:55:43.020Z,225
2017-03-16T05:56:43.034Z,225
2017-03-16T05:57:43.078Z,225
2017-03-16T05:58:43.076Z,225
2017-03-16T05:59:43.071Z,225
2017-03-16T06:00:43.135Z,225
2017-03-16T06:01:43.158Z,225
2017-03-16T06:02:43.172Z,0
2017-03-16T06:03:43.255Z,0
2017-03-16T06:04:43.280Z,0
2017-03-16T06:05:43.233Z,0
2017-03-16T06:06:43.255Z,0
2017-03-16T06:07:37.309Z,0
2017-03-16T06:08:31.344Z,0
2017-03-16T06:09:31.465Z,0
2017-03-16T06:10:31.332Z,0
2017-03-16T06:11:31.365Z,0
2017-03-16T06:12:31.405Z,0
2017-03-16T06:13:32.427Z,0
2017-03-16T06:14:27.510Z,0
2017-03-16T06:15:21.530Z,248
2017-03-16T06:16:21.525Z,135
2017-03-16T06:17:16.551Z,135
2017-03-16T06:18:11.557Z,135
2017-03-16T06:19:11.679Z,135
2017-03-16T06:20:06.713Z,135
2017-03-16T06:21:01.800Z,135
2017-03-16T06:21:55.712Z,135
2017-03-16T06:22:55.748Z,135
2017-03-16T06:23:50.807Z,135
2017-03-16T06:24:50.818Z,135
2017-03-16T06:25:50.819Z,135
2017-03-16T06:26:50.841Z,135
2017-03-16T06:27:44.915Z,135
2017-03-16T06:28:44.931Z,135
2017-03-16T06:29:39.883Z,135
2017-03-16T06:30:34.929Z,135
2017-03-16T06:31:29.025Z,135
2017-03-16T06:32:30.039Z,135
2017-03-16T06:33:31.045Z,135
2017-03-16T06:34:26.103Z,135
2017-03-16T06:35:26.121Z,135
2017-03-16T06:36:32.132Z,135
2017-03-16T06:37:27.133Z,135
2017-03-16T06:38:21.224Z,135
2017-03-16T06:39:21.239Z,135
2017-03-16T06:40:16.256Z,135
2017-03-16T06:41:11.223Z,135
2017-03-16T06:42:11.248Z,135
2017-03-16T06:43:06.330Z,135
2017-03-16T06:44:01.414Z,135
2017-03-16T06:44:55.415Z,135
2017-03-16T06:45:43.440Z,135
2017-03-16T06:46:31.460Z,135
2017-03-16T06:47:20.489Z,135
2017-03-16T06:48:08.534Z,135
2017-03-16T06:48:57.611Z,135
2017-03-16T06:49:57.652Z,135
2017-03-16T06:50:46.636Z,135
2017-03-16T06:51:34.725Z,135
2017-03-16T06:52:22.739Z,135
2017-03-16T06:53:11.797Z,135
2017-03-16T06:53:59.801Z,135
2017-03-16T06:54:48.850Z,135
2017-03-16T06:55:37.028Z,135
2017-03-16T06:56:24.934Z,135
2017-03-16T06:57:18.954Z,135
2017-03-16T06:58:08.032Z,135
2017-03-16T06:59:02.047Z,135
2017-03-16T06:59:56.070Z,135
2017-03-16T07:00:45.127Z,135
2017-03-16T07:01:33.145Z,135
2017-03-16T07:02:27.205Z,135
2017-03-16T07:03:15.199Z,135
2017-03-16T07:04:03.249Z,135
2017-03-16T07:04:51.334Z,135
2017-03-16T07:05:45.301Z,135
2017-03-16T07:06:34.365Z,135
2017-03-16T07:07:22.445Z,135
2017-03-16T07:08:11.458Z,135
2017-03-16T07:08:59.514Z,135
2017-03-16T07:09:48.505Z,135
2017-03-16T07:10:36.603Z,135
2017-03-16T07:11:24.655Z,135
2017-03-16T07:12:25.648Z,135
2017-03-16T07:13:20.688Z,23
2017-03-16T07:14:14.693Z,225
2017-03-16T07:15:15.807Z,270
2017-03-16T07:16:09.824Z,203
2017-03-16T07:16:57.848Z,90
2017-03-16T07:17:51.901Z,90
2017-03-16T07:18:45.855Z,90
2017-03-16T07:19:46.932Z,90
2017-03-16T07:20:47.096Z,158
2017-03-16T07:21:36.015Z,45
2017-03-16T07:22:25.070Z,248
2017-03-16T07:23:20.074Z,23
2017-03-16T07:24:09.146Z,23
2017-03-16T07:25:03.162Z,225
2017-03-16T07:25:58.201Z,225
2017-03-16T07:26:46.221Z,225
2017-03-16T07:27:34.341Z,248
2017-03-16T07:28:23.349Z,225
2017-03-16T07:29:23.363Z,225
2017-03-16T07:30:23.418Z,270
2017-03-16T07:31:17.591Z,270
2017-03-16T07:32:05.475Z,225
2017-03-16T07:33:06.553Z,248
2017-03-16T07:33:55.579Z,0
2017-03-16T07:34:49.770Z,292
2017-03-16T07:35:37.665Z,225
2017-03-16T07:36:26.725Z,0
2017-03-16T07:37:27.743Z,315
2017-03-16T07:38:27.782Z,315
2017-03-16T07:39:22.916Z,270
2017-03-16T07:40:22.849Z,270
2017-03-16T07:41:18.025Z,270
2017-03-16T07:42:11.931Z,270
2017-03-16T07:43:11.953Z,270
2017-03-16T07:44:12.047Z,270
2017-03-16T07:45:12.044Z,270
2017-03-16T07:46:12.045Z,270
2017-03-16T07:47:12.134Z,0
2017-03-16T07:48:01.159Z,270
2017-03-16T07:48:55.217Z,270
2017-03-16T07:49:55.218Z,270
2017-03-16T07:50:44.256Z,270
2017-03-16T07:51:33.322Z,248
2017-03-16T07:52:22.478Z,0
2017-03-16T07:53:10.430Z,270
2017-03-16T07:54:10.450Z,270
2017-03-16T07:55:05.504Z,23
2017-03-16T07:56:05.547Z,45
2017-03-16T07:56:54.527Z,248
2017-03-16T07:57:42.636Z,225
2017-03-16T07:58:30.661Z,225
2017-03-16T07:59:25.815Z,225
2017-03-16T08:00:20.767Z,225
2017-03-16T08:01:14.802Z,225
2017-03-16T08:02:02.848Z,225
2017-03-16T08:02:50.924Z,225
2017-03-16T08:03:44.944Z,225
2017-03-16T08:04:44.960Z,225
2017-03-16T08:05:40.045Z,225
2017-03-16T08:06:34.063Z,225
2017-03-16T08:07:40.058Z,225
2017-03-16T08:08:28.147Z,225
2017-03-16T08:09:23.295Z,338
2017-03-16T08:10:12.245Z,225
2017-03-16T08:11:01.253Z,270
2017-03-16T08:11:55.422Z,338
2017-03-16T08:12:49.338Z,225
2017-03-16T08:13:44.423Z,225
2017-03-16T08:14:32.456Z,338
2017-03-16T08:15:20.484Z,248
2017-03-16T08:16:21.686Z,0
2017-03-16T08:17:15.569Z,225
2017-03-16T08:18:03.628Z,248
2017-03-16T08:18:57.882Z,248
2017-03-16T08:19:45.736Z,338
2017-03-16T08:20:45.752Z,270
2017-03-16T08:21:39.841Z,270
2017-03-16T08:22:45.849Z,270
2017-03-16T08:23:39.856Z,315
2017-03-16T08:24:27.876Z,270
2017-03-16T08:25:21.972Z,270
2017-03-16T08:26:16.047Z,270
2017-03-16T08:27:05.066Z,270
2017-03-16T08:27:53.089Z,270
2017-03-16T08:28:47.144Z,270
2017-03-16T08:29:48.171Z,270
2017-03-16T08:30:42.264Z,135
2017-03-16T08:31:42.274Z,135
2017-03-16T08:32:37.510Z,135
2017-03-16T08:33:32.327Z,135
2017-03-16T08:34:26.437Z,135
2017-03-16T08:35:26.454Z,135
2017-03-16T08:36:21.500Z,135
2017-03-16T08:37:15.537Z,135
2017-03-16T08:38:15.637Z,135
2017-03-16T08:39:09.655Z,135
2017-03-16T08:40:10.661Z,135
2017-03-16T08:40:59.863Z,135
2017-03-16T08:41:48.776Z,135
2017-03-16T08:42:37.837Z,135
2017-03-16T08:43:26.874Z,135
2017-03-16T08:44:26.915Z,135
2017-03-16T08:45:20.955Z,23
2017-03-16T08:46:21.003Z,0
2017-03-16T08:47:21.045Z,248
2017-03-16T08:48:21.113Z,0
2017-03-16T08:49:15.146Z,270
2017-03-16T08:50:15.175Z,225
2017-03-16T08:51:04.171Z,203
2017-03-16T08:51:53.266Z,90
2017-03-16T08:52:48.330Z,292
2017-03-16T08:53:37.365Z,270
2017-03-16T08:54:37.439Z,0
2017-03-16T08:55:32.564Z,225
2017-03-16T08:56:32.606Z,225
2017-03-16T08:57:32.659Z,248
2017-03-16T08:58:27.617Z,270
2017-03-16T08:59:27.642Z,0
2017-03-16T09:00:21.666Z,270
2017-03-16T09:01:15.730Z,270
2017-03-16T09:02:15.750Z,270
2017-03-16T09:03:15.834Z,270
2017-03-16T09:04:09.855Z,270
2017-03-16T09:05:04.024Z,23
2017-03-16T09:05:58.962Z,270
2017-03-16T09:06:47.022Z,292
2017-03-16T09:07:47.043Z,315
2017-03-16T09:08:42.116Z,248
2017-03-16T09:09:36.257Z,248
2017-03-16T09:10:24.221Z,45
2017-03-16T09:11:25.246Z,180
2017-03-16T09:12:14.318Z,23
2017-03-16T09:13:03.359Z,270
2017-03-16T09:13:52.415Z,270
2017-03-16T09:14:41.429Z,270
2017-03-16T09:15:36.461Z,315
2017-03-16T09:16:30.574Z,338
2017-03-16T09:17:30.572Z,180
2017-03-16T09:18:25.659Z,248
2017-03-16T09:19:19.707Z,270
2017-03-16T09:20:14.745Z,270
2017-03-16T09:21:09.735Z,0
2017-03-16T09:21:57.847Z,270
2017-03-16T09:22:57.908Z,45
2017-03-16T09:23:51.939Z,338
2017-03-16T09:24:51.978Z,0
2017-03-16T09:25:46.010Z,0
2017-03-16T09:26:41.043Z,0
2017-03-16T09:27:41.077Z,248
2017-03-16T09:28:35.152Z,225
2017-03-16T09:29:35.226Z,315
2017-03-16T09:30:29.260Z,0
2017-03-16T09:31:17.324Z,203
2017-03-16T09:32:11.343Z,203
2017-03-16T09:33:05.434Z,203
2017-03-16T09:33:59.453Z,203
2017-03-16T09:34:59.498Z,180
2017-03-16T09:35:53.565Z,203
2017-03-16T09:36:42.638Z,180
2017-03-16T09:37:42.651Z,180
2017-03-16T09:38:36.713Z,338
2017-03-16T09:39:30.756Z,180
2017-03-16T09:40:24.822Z,23
2017-03-16T09:41:19.841Z,135
2017-03-16T09:42:19.920Z,135
2017-03-16T09:43:14.935Z,23
2017-03-16T09:44:03.004Z,225
2017-03-16T09:45:03.056Z,248
2017-03-16T09:45:57.079Z,248
2017-03-16T09:46:57.137Z,338
2017-03-16T09:47:52.207Z,248
2017-03-16T09:48:46.181Z,23
2017-03-16T09:49:41.441Z,0
2017-03-16T09:50:35.339Z,270
2017-03-16T09:51:29.414Z,248
2017-03-16T09:52:29.449Z,225
2017-03-16T09:53:18.427Z,270
2017-03-16T09:54:07.537Z,270
2017-03-16T09:55:02.572Z,225
2017-03-16T09:55:51.688Z,248
2017-03-16T09:56:45.793Z,270
2017-03-16T09:57:39.740Z,203
2017-03-16T09:58:33.754Z,0
2017-03-16T09:59:27.831Z,270
2017-03-16T10:00:21.912Z,248
2017-03-16T10:01:10.936Z,45
2017-03-16T10:02:04.962Z,248
2017-03-16T10:02:59.016Z,338
2017-03-16T10:03:48.203Z,225
2017-03-16T10:04:42.130Z,203
2017-03-16T10:05:37.147Z,270
2017-03-16T10:06:31.231Z,270
2017-03-16T10:07:31.266Z,270
2017-03-16T10:08:20.272Z,0
2017-03-16T10:09:15.488Z,45
2017-03-16T10:10:09.425Z,292
2017-03-16T10:10:58.465Z,0
2017-03-16T10:11:52.503Z,338
2017-03-16T10:12:47.683Z,203
2017-03-16T10:13:36.684Z,180
2017-03-16T10:14:25.669Z,203
2017-03-16T10:15:25.742Z,135
2017-03-16T10:16:25.716Z,203
2017-03-16T10:17:25.818Z,135
2017-03-16T10:18:25.849Z,203
2017-03-16T10:19:20.864Z,248
2017-03-16T10:20:14.955Z,315
2017-03-16T10:21:09.008Z,270
2017-03-16T10:21:58.029Z,248
2017-03-16T10:22:58.053Z,23
2017-03-16T10:23:52.257Z,248
2017-03-16T10:24:46.205Z,225
2017-03-16T10:25:40.235Z,338
2017-03-16T10:26:29.302Z,292
2017-03-16T10:27:24.296Z,248
2017-03-16T10:28:18.422Z,292
2017-03-16T10:29:12.447Z,338
2017-03-16T10:30:12.494Z,248
2017-03-16T10:31:07.544Z,248
2017-03-16T10:32:01.598Z,203
2017-03-16T10:32:49.610Z,203
2017-03-16T10:33:43.649Z,248
2017-03-16T10:34:32.732Z,248
2017-03-16T10:35:27.803Z,23
2017-03-16T10:36:16.835Z,23
2017-03-16T10:37:11.891Z,248
2017-03-16T10:38:06.968Z,270
2017-03-16T10:38:54.923Z,270
2017-03-16T10:39:48.998Z,0
2017-03-16T10:40:43.132Z,0
2017-03-16T10:41:37.132Z,248
2017-03-16T10:42:37.151Z,180
2017-03-16T10:43:32.229Z,23
2017-03-16T10:44:26.378Z,180
2017-03-16T10:45:21.336Z,292
2017-03-16T10:46:09.356Z,292
2017-03-16T10:46:58.383Z,0
2017-03-16T10:47:47.447Z,270
2017-03-16T10:48:41.537Z,292
2017-03-16T10:49:35.566Z,292
2017-03-16T10:50:24.749Z,0
2017-03-16T10:51:13.716Z,270
2017-03-16T10:52:02.740Z,225
2017-03-16T10:53:02.793Z,225
2017-03-16T10:53:57.926Z,203
2017-03-16T10:54:51.861Z,203
2017-03-16T10:55:45.921Z,180
2017-03-16T10:56:34.986Z,180
2017-03-16T10:57:24.042Z,180
2017-03-16T10:58:19.099Z,203
2017-03-16T10:59:08.130Z,225
2017-03-16T10:59:56.240Z,270
2017-03-16T11:00:45.252Z,270
2017-03-16T11:01:39.303Z,338
2017-03-16T11:02:28.458Z,270
2017-03-16T11:03:16.413Z,292
2017-03-16T11:04:05.396Z,45
2017-03-16T11:05:05.483Z,180
2017-03-16T11:06:05.542Z,135
2017-03-16T11:07:00.851Z,180
2017-03-16T11:07:49.640Z,45
2017-03-16T11:08:43.667Z,0
2017-03-16T11:09:38.740Z,0
2017-03-16T11:10:32.737Z,338
2017-03-16T11:11:20.828Z,248
2017-03-16T11:12:20.903Z,338
2017-03-16T11:13:08.928Z,0
2017-03-16T11:14:03.945Z,0
2017-03-16T11:15:03.988Z,248
2017-03-16T11:15:58.051Z,338
2017-03-16T11:16:52.151Z,338
2017-03-16T11:17:41.217Z,0
2017-03-16T11:18:35.225Z,292
2017-03-16T11:19:30.418Z,23
2017-03-16T11:20:24.346Z,225
2017-03-16T11:21:19.416Z,248
2017-03-16T11:22:08.437Z,203
2017-03-16T11:23:09.441Z,180
2017-03-16T11:24:04.500Z,0
2017-03-16T11:24:53.572Z,45
2017-03-16T11:25:47.622Z,23
2017-03-16T11:26:36.704Z,23
2017-03-16T11:27:30.745Z,23
2017-03-16T11:28:25.823Z,203
2017-03-16T11:29:14.839Z,135
2017-03-16T11:30:03.878Z,23
2017-03-16T11:30:57.934Z,248
2017-03-16T11:31:57.945Z,248
2017-03-16T11:32:53.034Z,248
2017-03-16T11:33:42.089Z,45
2017-03-16T11:34:37.243Z,338
2017-03-16T11:35:31.158Z,338
2017-03-16T11:36:25.242Z,248
2017-03-16T11:37:13.271Z,248
2017-03-16T11:38:13.351Z,135
2017-03-16T11:39:08.517Z,23
2017-03-16T11:39:57.451Z,292
2017-03-16T11:40:57.482Z,0
2017-03-16T11:41:45.484Z,338
2017-03-16T11:42:40.692Z,248
2017-03-16T11:43:29.641Z,0
2017-03-16T11:44:23.719Z,270
2017-03-16T11:45:12.764Z,0
2017-03-16T11:46:01.822Z,0
2017-03-16T11:46:55.848Z,270
2017-03-16T11:47:55.922Z,0
2017-03-16T11:48:49.965Z,292
2017-03-16T11:49:45.019Z,270
2017-03-16T11:50:39.053Z,270
2017-03-16T11:51:33.124Z,338
2017-03-16T11:52:33.161Z,338
2017-03-16T11:53:28.219Z,248
2017-03-16T11:54:22.236Z,248
2017-03-16T11:55:17.334Z,23
2017-03-16T11:56:11.480Z,0
2017-03-16T11:57:05.455Z,0
2017-03-16T11:57:59.520Z,23
2017-03-16T11:58:47.478Z,225
2017-03-16T11:59:47.559Z,225
2017-03-16T12:00:41.737Z,292
2017-03-16T12:01:35.645Z,270
2017-03-16T12:02:29.735Z,0
2017-03-16T12:03:23.816Z,270
2017-03-16T12:04:11.856Z,0
2017-03-16T12:05:05.854Z,0
2017-03-16T12:06:00.942Z,203
2017-03-16T12:06:55.956Z,90
2017-03-16T12:07:51.058Z,0
2017-03-16T12:08:46.230Z,23
2017-03-16T12:09:46.274Z,203
2017-03-16T12:10:35.214Z,248
2017-03-16T12:11:29.247Z,45
2017-03-16T12:12:23.272Z,23
2017-03-16T12:13:18.463Z,180
2017-03-16T12:14:07.655Z,338
2017-03-16T12:15:01.447Z,0
2017-03-16T12:16:01.680Z,248
2017-03-16T12:16:50.562Z,23
2017-03-16T12:17:44.637Z,248
2017-03-16T12:18:38.706Z,338
2017-03-16T12:19:26.745Z,248
2017-03-16T12:20:20.761Z,270
2017-03-16T12:21:14.833Z,45
2017-03-16T12:22:08.913Z,225
2017-03-16T12:23:02.944Z,23
2017-03-16T12:23:52.035Z,135
2017-03-16T12:24:47.310Z,135
2017-03-16T12:25:41.077Z,203
2017-03-16T12:26:35.150Z,135
2017-03-16T12:27:23.175Z,0
2017-03-16T12:28:18.260Z,292
2017-03-16T12:29:07.339Z,270
2017-03-16T12:30:07.442Z,270
2017-03-16T12:31:02.452Z,270
2017-03-16T12:31:56.518Z,292
2017-03-16T12:32:44.562Z,338
2017-03-16T12:33:44.633Z,338
2017-03-16T12:34:38.658Z,45
2017-03-16T12:35:33.711Z,203
2017-03-16T12:36:28.761Z,203
2017-03-16T12:37:28.856Z,203
2017-03-16T12:38:17.915Z,203
2017-03-16T12:39:12.946Z,203
2017-03-16T12:40:01.985Z,45
2017-03-16T12:40:50.025Z,270
2017-03-16T12:41:39.121Z,270
2017-03-16T12:42:33.170Z,270
2017-03-16T12:43:27.240Z,0
2017-03-16T12:44:28.229Z,338
2017-03-16T12:45:28.330Z,225
2017-03-16T12:46:23.504Z,248
2017-03-16T12:47:17.459Z,0
2017-03-16T12:48:11.475Z,338
2017-03-16T12:49:00.502Z,292
2017-03-16T12:49:49.556Z,248
2017-03-16T12:50:43.638Z,292
2017-03-16T12:51:38.737Z,292
2017-03-16T12:52:32.764Z,270
2017-03-16T12:53:21.841Z,270
2017-03-16T12:54:10.912Z,0
2017-03-16T12:55:04.937Z,203
2017-03-16T12:55:58.952Z,23
2017-03-16T12:56:47.077Z,0
2017-03-16T12:57:41.116Z,45
2017-03-16T12:58:41.137Z,23
2017-03-16T12:59:30.178Z,270
2017-03-16T13:00:19.247Z,0
2017-03-16T13:01:14.334Z,270
2017-03-16T13:02:03.546Z,270
2017-03-16T13:02:51.450Z,270
2017-03-16T13:03:46.466Z,338
2017-03-16T13:04:47.573Z,225
2017-03-16T13:05:41.573Z,0
2017-03-16T13:06:29.777Z,0
2017-03-16T13:07:30.683Z,338
2017-03-16T13:08:25.757Z,135
2017-03-16T13:09:14.844Z,45
2017-03-16T13:10:03.850Z,338
2017-03-16T13:10:58.900Z,23
2017-03-16T13:11:52.954Z,135
2017-03-16T13:12:47.046Z,135
2017-03-16T13:13:41.066Z,23
2017-03-16T13:14:36.105Z,203